createdAt,value
2017-10-23T00:00:15.200Z,989.95
2017-10-23T00:01:22.155Z,989.87
2017-10-23T00:02:29.107Z,989.87
2017-10-23T00:03:36.040Z,989.89
2017-10-23T00:04:43.305Z,989.84
2017-10-23T00:05:50.326Z,989.84
2017-10-23T00:06:57.408Z,989.91
2017-10-23T00:08:04.559Z,989.83
2017-10-23T00:09:11.485Z,989.85
2017-10-23T00:10:18.313Z,989.83
2017-10-23T00:11:25.162Z,989.87
2017-10-23T00:12:32.015Z,989.87
2017-10-23T00:13:39.381Z,989.94
2017-10-23T00:14:45.879Z,989.85
2017-10-23T00:15:52.922Z,989.93
2017-10-23T00:16:59.805Z,989.88
2017-10-23T00:18:06.735Z,989.93
2017-10-23T00:19:13.679Z,989.89
2017-10-23T00:20:20.574Z,989.93
2017-10-23T00:21:27.438Z,989.88
2017-10-23T00:22:34.358Z,989.88
2017-10-23T00:23:41.363Z,989.87
2017-10-23T00:24:48.346Z,989.92
2017-10-23T00:25:55.419Z,989.95
2017-10-23T00:27:02.425Z,989.89
2017-10-23T00:28:09.392Z,989.85
2017-10-23T00:29:16.438Z,989.90
2017-10-23T00:30:23.230Z,989.87
2017-10-23T00:31:30.155Z,989.90
2017-10-23T00:32:37.124Z,989.91
2017-10-23T00:33:43.787Z,989.92
2017-10-23T00:34:50.795Z,989.92
2017-10-23T00:35:57.562Z,989.80
2017-10-23T00:37:04.936Z,989.82
2017-10-23T00:38:11.710Z,989.93
2017-10-23T00:39:18.645Z,989.98
2017-10-23T00:40:25.339Z,989.94
2017-10-23T00:41:32.070Z,990.03
2017-10-23T00:42:39.252Z,989.90
2017-10-23T00:43:46.308Z,989.90
2017-10-23T00:44:52.931Z,989.86
2017-10-23T00:45:59.879Z,989.89
2017-10-23T00:47:06.811Z,989.99
2017-10-23T00:48:13.791Z,989.99
2017-10-23T00:49:20.711Z,989.97
2017-10-23T00:50:27.858Z,989.89
2017-10-23T00:51:34.757Z,989.93
2017-10-23T00:52:41.653Z,989.92
2017-10-23T00:53:48.503Z,989.93
2017-10-23T00:54:55.426Z,989.91
2017-10-23T00:56:02.438Z,989.99
2017-10-23T00:57:09.434Z,989.99
2017-10-23T00:58:16.374Z,990.07
2017-10-23T00:59:23.574Z,990.07
2017-10-23T01:00:30.518Z,989.99
2017-10-23T01:01:37.459Z,990.00
2017-10-23T01:02:44.414Z,990.06
2017-10-23T01:03:51.358Z,990.11
2017-10-23T01:04:58.327Z,990.08
2017-10-23T01:06:05.291Z,990.17
2017-10-23T01:07:12.182Z,990.09
2017-10-23T01:08:19.038Z,990.12
2017-10-23T01:09:25.959Z,990.08
2017-10-23T01:10:32.871Z,990.11
2017-10-23T01:11:39.939Z,990.11
2017-10-23T01:12:46.848Z,990.13
2017-10-23T01:13:53.819Z,990.11
2017-10-23T01:15:00.742Z,990.12
2017-10-23T01:16:07.681Z,990.08
2017-10-23T01:17:14.730Z,990.07
2017-10-23T01:18:21.618Z,989.97
2017-10-23T01:19:28.455Z,990.06
2017-10-23T01:20:35.394Z,990.01
2017-10-23T01:21:42.512Z,990.05
2017-10-23T01:22:49.575Z,990.04
2017-10-23T01:23:56.262Z,990.03
2017-10-23T01:25:03.345Z,990.01
2017-10-23T01:26:10.274Z,990.11
2017-10-23T01:27:17.536Z,990.11
2017-10-23T01:28:24.210Z,990.13
2017-10-23T01:29:31.309Z,990.09
2017-10-23T01:30:38.410Z,990.04
2017-10-23T01:31:45.323Z,990.11
2017-10-23T01:32:52.224Z,989.99
2017-10-23T01:33:59.106Z,990.04
2017-10-23T01:35:06.068Z,989.98
2017-10-23T01:36:13.186Z,990.03
2017-10-23T01:37:20.026Z,989.96
2017-10-23T01:38:26.502Z,989.98
2017-10-23T01:39:33.465Z,989.98
2017-10-23T01:40:40.570Z,989.96
2017-10-23T01:41:47.645Z,990.03
2017-10-23T01:42:54.676Z,990.02
2017-10-23T01:44:01.530Z,990.02
2017-10-23T01:45:08.486Z,990.00
2017-10-23T01:46:15.342Z,989.98
2017-10-23T01:47:22.180Z,990.00
2017-10-23T01:48:29.114Z,989.96
2017-10-23T01:49:35.994Z,989.95
2017-10-23T01:50:42.891Z,989.99
2017-10-23T01:51:49.782Z,989.98
2017-10-23T01:52:56.765Z,989.97
2017-10-23T01:54:03.681Z,990.00
2017-10-23T01:55:10.602Z,989.97
2017-10-23T01:56:17.489Z,989.99
2017-10-23T01:57:24.457Z,989.97
2017-10-23T01:58:31.438Z,989.91
2017-10-23T01:59:38.315Z,990.00
2017-10-23T02:00:45.191Z,990.01
2017-10-23T02:01:52.207Z,989.94
2017-10-23T02:02:59.094Z,989.95
2017-10-23T02:04:06.014Z,990.05
2017-10-23T02:05:12.919Z,990.04
2017-10-23T02:06:19.794Z,990.00
2017-10-23T02:07:26.682Z,990.02
2017-10-23T02:08:33.606Z,990.02
2017-10-23T02:09:40.378Z,990.02
2017-10-23T02:10:47.219Z,990.08
2017-10-23T02:11:54.120Z,990.06
2017-10-23T02:13:00.991Z,990.05
2017-10-23T02:14:07.957Z,990.02
2017-10-23T02:15:14.795Z,990.00
2017-10-23T02:16:21.686Z,990.05
2017-10-23T02:17:28.628Z,989.99
2017-10-23T02:18:35.622Z,989.92
2017-10-23T02:19:42.554Z,990.03
2017-10-23T02:20:49.539Z,990.05
2017-10-23T02:21:56.461Z,990.06
2017-10-23T02:23:03.413Z,990.05
2017-10-23T02:24:10.286Z,990.03
2017-10-23T02:25:17.144Z,990.05
2017-10-23T02:26:24.007Z,990.00
2017-10-23T02:27:30.890Z,990.10
2017-10-23T02:28:37.789Z,990.08
2017-10-23T02:29:44.579Z,990.04
2017-10-23T02:30:51.761Z,990.12
2017-10-23T02:31:58.201Z,990.14
2017-10-23T02:33:05.064Z,990.11
2017-10-23T02:34:12.130Z,990.15
2017-10-23T02:35:19.149Z,990.10
2017-10-23T02:36:26.094Z,990.17
2017-10-23T02:37:33.176Z,990.15
2017-10-23T02:38:39.837Z,990.24
2017-10-23T02:39:46.836Z,990.23
2017-10-23T02:40:53.790Z,990.26
2017-10-23T02:42:00.676Z,990.25
2017-10-23T02:43:07.588Z,990.31
2017-10-23T02:44:14.543Z,990.30
2017-10-23T02:45:21.441Z,990.36
2017-10-23T02:46:28.330Z,990.33
2017-10-23T02:47:35.234Z,990.31
2017-10-23T02:48:42.121Z,990.36
2017-10-23T02:49:48.972Z,990.38
2017-10-23T02:50:55.822Z,990.41
2017-10-23T02:52:02.752Z,990.31
2017-10-23T02:53:09.650Z,990.36
2017-10-23T02:54:16.662Z,990.32
2017-10-23T02:55:23.555Z,990.33
2017-10-23T02:56:30.471Z,990.35
2017-10-23T02:57:37.425Z,990.35
2017-10-23T02:58:44.308Z,990.39
2017-10-23T02:59:51.160Z,990.41
2017-10-23T03:00:58.077Z,990.34
2017-10-23T03:02:05.083Z,990.40
2017-10-23T03:03:12.134Z,990.49
2017-10-23T03:04:19.122Z,990.41
2017-10-23T03:05:26.145Z,990.38
2017-10-23T03:06:33.140Z,990.36
2017-10-23T03:07:40.285Z,990.43
2017-10-23T03:08:47.166Z,990.42
2017-10-23T03:09:54.226Z,990.35
2017-10-23T03:11:01.231Z,990.37
2017-10-23T03:12:08.254Z,990.43
2017-10-23T03:13:15.258Z,990.37
2017-10-23T03:14:22.219Z,990.46
2017-10-23T03:15:29.162Z,990.47
2017-10-23T03:16:36.208Z,990.47
2017-10-23T03:17:43.187Z,990.40
2017-10-23T03:18:50.198Z,990.33
2017-10-23T03:19:57.054Z,990.40
2017-10-23T03:21:03.975Z,990.46
2017-10-23T03:22:10.903Z,990.47
2017-10-23T03:23:17.834Z,990.49
2017-10-23T03:24:24.690Z,990.46
2017-10-23T03:25:31.583Z,990.52
2017-10-23T03:26:38.888Z,990.45
2017-10-23T03:27:45.366Z,990.50
2017-10-23T03:28:52.465Z,990.49
2017-10-23T03:29:59.623Z,990.43
2017-10-23T03:31:06.147Z,990.42
2017-10-23T03:32:13.250Z,990.41
2017-10-23T03:33:19.970Z,990.51
2017-10-23T03:34:27.066Z,990.46
2017-10-23T03:35:33.926Z,990.53
2017-10-23T03:36:40.811Z,990.47
2017-10-23T03:37:47.763Z,990.48
2017-10-23T03:38:54.615Z,990.49
2017-10-23T03:40:01.699Z,990.54
2017-10-23T03:41:08.935Z,990.45
2017-10-23T03:42:15.790Z,990.46
2017-10-23T03:43:22.645Z,990.44
2017-10-23T03:44:29.790Z,990.47
2017-10-23T03:45:36.878Z,990.49
2017-10-23T03:46:44.034Z,990.40
2017-10-23T03:47:51.177Z,990.47
2017-10-23T03:48:58.078Z,990.50
2017-10-23T03:50:05.147Z,990.51
2017-10-23T03:51:12.096Z,990.59
2017-10-23T03:52:19.022Z,990.63
2017-10-23T03:53:25.958Z,990.53
2017-10-23T03:54:32.954Z,990.56
2017-10-23T03:55:39.978Z,990.58
2017-10-23T03:56:46.848Z,990.52
2017-10-23T03:57:53.836Z,990.56
2017-10-23T03:59:00.766Z,990.56
2017-10-23T04:00:07.741Z,990.58
2017-10-23T04:01:14.774Z,990.57
2017-10-23T04:02:21.886Z,990.56
2017-10-23T04:03:28.815Z,990.65
2017-10-23T04:04:35.931Z,990.60
2017-10-23T04:05:42.354Z,990.67
2017-10-23T04:06:49.426Z,990.64
2017-10-23T04:07:56.372Z,990.75
2017-10-23T04:09:03.395Z,990.79
2017-10-23T04:10:10.327Z,990.72
2017-10-23T04:11:17.278Z,990.77
2017-10-23T04:12:24.270Z,990.78
2017-10-23T04:13:31.238Z,990.81
2017-10-23T04:14:38.253Z,990.88
2017-10-23T04:15:45.244Z,990.84
2017-10-23T04:16:52.215Z,990.93
2017-10-23T04:17:59.240Z,990.84
2017-10-23T04:19:06.263Z,990.91
2017-10-23T04:20:13.182Z,990.86
2017-10-23T04:21:20.189Z,990.88
2017-10-23T04:22:27.189Z,990.93
2017-10-23T04:23:34.181Z,990.85
2017-10-23T04:24:41.214Z,990.92
2017-10-23T04:25:48.283Z,990.91
2017-10-23T04:26:55.220Z,990.92
2017-10-23T04:28:02.088Z,990.96
2017-10-23T04:29:09.030Z,991.00
2017-10-23T04:30:16.097Z,991.00
2017-10-23T04:31:23.022Z,991.02
2017-10-23T04:32:29.963Z,991.05
2017-10-23T04:33:36.982Z,990.94
2017-10-23T04:34:43.898Z,991.02
2017-10-23T04:35:50.817Z,991.02
2017-10-23T04:36:57.714Z,991.04
2017-10-23T04:38:04.674Z,991.02
2017-10-23T04:39:11.643Z,991.02
2017-10-23T04:40:18.610Z,991.02
2017-10-23T04:41:25.571Z,991.01
2017-10-23T04:42:32.622Z,990.95
2017-10-23T04:43:39.645Z,991.02
2017-10-23T04:44:46.667Z,991.02
2017-10-23T04:45:53.498Z,990.93
2017-10-23T04:47:00.678Z,991.00
2017-10-23T04:48:07.638Z,990.97
2017-10-23T04:49:14.917Z,991.06
2017-10-23T04:50:21.530Z,991.07
2017-10-23T04:51:28.598Z,991.00
2017-10-23T04:52:35.575Z,991.00
2017-10-23T04:53:42.548Z,991.00
2017-10-23T04:54:49.598Z,991.06
2017-10-23T04:55:56.739Z,991.01
2017-10-23T04:57:03.777Z,991.02
2017-10-23T04:58:10.759Z,990.98
2017-10-23T04:59:17.637Z,991.03
2017-10-23T05:00:24.650Z,990.96
2017-10-23T05:01:31.582Z,991.03
2017-10-23T05:02:38.494Z,991.06
2017-10-23T05:03:45.425Z,991.11
2017-10-23T05:04:52.355Z,991.05
2017-10-23T05:05:59.323Z,991.02
2017-10-23T05:07:06.299Z,991.08
2017-10-23T05:08:13.438Z,991.11
2017-10-23T05:09:20.403Z,991.12
2017-10-23T05:10:27.311Z,991.12
2017-10-23T05:11:34.364Z,991.10
2017-10-23T05:12:41.294Z,991.10
2017-10-23T05:13:48.227Z,991.11
2017-10-23T05:14:55.176Z,991.07
2017-10-23T05:16:02.066Z,991.12
2017-10-23T05:17:09.114Z,991.13
2017-10-23T05:18:16.066Z,991.06
2017-10-23T05:19:23.103Z,991.15
2017-10-23T05:20:30.024Z,991.06
2017-10-23T05:21:37.342Z,991.05
2017-10-23T05:22:44.086Z,991.04
2017-10-23T05:23:50.490Z,991.00
2017-10-23T05:24:57.517Z,990.99
2017-10-23T05:26:04.175Z,991.01
2017-10-23T05:27:11.102Z,991.01
2017-10-23T05:28:18.039Z,991.01
2017-10-23T05:29:24.942Z,991.03
2017-10-23T05:30:31.889Z,990.97
2017-10-23T05:31:39.562Z,990.97
2017-10-23T05:32:45.955Z,990.91
2017-10-23T05:33:52.813Z,991.02
2017-10-23T05:34:59.837Z,990.87
2017-10-23T05:36:06.820Z,990.89
2017-10-23T05:37:13.726Z,990.85
2017-10-23T05:38:21.119Z,991.00
2017-10-23T05:39:27.699Z,990.95
2017-10-23T05:40:34.808Z,990.92
2017-10-23T05:41:42.520Z,990.97
2017-10-23T05:42:48.487Z,990.98
2017-10-23T05:43:55.386Z,991.00
2017-10-23T05:45:02.334Z,990.94
2017-10-23T05:46:09.284Z,990.95
2017-10-23T05:47:16.234Z,990.94
2017-10-23T05:48:23.110Z,991.01
2017-10-23T05:49:30.024Z,991.01
2017-10-23T05:50:36.991Z,991.01
2017-10-23T05:51:43.854Z,991.00
2017-10-23T05:52:50.754Z,990.97
2017-10-23T05:53:57.694Z,990.99
2017-10-23T05:55:04.633Z,991.04
2017-10-23T05:56:11.642Z,991.01
2017-10-23T05:57:18.540Z,991.01
2017-10-23T05:58:25.478Z,991.01
2017-10-23T05:59:32.548Z,990.98
2017-10-23T06:00:39.408Z,991.06
2017-10-23T06:01:46.354Z,991.07
2017-10-23T06:02:53.249Z,991.03
2017-10-23T06:04:00.830Z,991.06
2017-10-23T06:05:07.291Z,991.01
2017-10-23T06:06:14.238Z,991.02
2017-10-23T06:07:21.410Z,990.96
2017-10-23T06:08:27.819Z,991.02
2017-10-23T06:09:34.652Z,991.04
2017-10-23T06:10:41.591Z,990.99
2017-10-23T06:11:48.518Z,991.10
2017-10-23T06:12:55.374Z,991.11
2017-10-23T06:14:02.227Z,991.14
2017-10-23T06:15:09.228Z,991.21
2017-10-23T06:16:16.167Z,991.11
2017-10-23T06:17:23.126Z,991.20
2017-10-23T06:18:30.409Z,991.14
2017-10-23T06:19:36.819Z,991.19
2017-10-23T06:20:43.706Z,991.20
2017-10-23T06:21:50.602Z,991.29
2017-10-23T06:22:57.600Z,991.31
2017-10-23T06:24:04.491Z,991.31
2017-10-23T06:25:11.500Z,991.35
2017-10-23T06:26:18.517Z,991.42
2017-10-23T06:27:25.463Z,991.42
2017-10-23T06:28:32.402Z,991.45
2017-10-23T06:29:39.521Z,991.53
2017-10-23T06:30:46.143Z,991.50
2017-10-23T06:31:53.054Z,991.50
2017-10-23T06:32:59.953Z,991.60
2017-10-23T06:34:06.890Z,991.52
2017-10-23T06:35:13.862Z,991.57
2017-10-23T06:36:20.771Z,991.58
2017-10-23T06:37:27.802Z,991.57
2017-10-23T06:38:34.848Z,991.61
2017-10-23T06:39:41.786Z,991.58
2017-10-23T06:40:48.685Z,991.62
2017-10-23T06:41:55.597Z,991.50
2017-10-23T06:43:02.426Z,991.56
2017-10-23T06:44:09.422Z,991.57
2017-10-23T06:45:16.340Z,991.51
2017-10-23T06:46:23.389Z,991.59
2017-10-23T06:47:30.327Z,991.55
2017-10-23T06:48:37.334Z,991.52
2017-10-23T06:49:44.314Z,991.51
2017-10-23T06:50:51.338Z,991.58
2017-10-23T06:51:58.418Z,991.51
2017-10-23T06:53:05.141Z,991.54
2017-10-23T06:54:12.258Z,991.51
2017-10-23T06:55:19.351Z,991.56
2017-10-23T06:56:27.351Z,991.50
2017-10-23T06:57:33.554Z,991.59
2017-10-23T06:58:40.931Z,991.59
2017-10-23T06:59:47.360Z,991.54
2017-10-23T07:00:54.612Z,991.55
2017-10-23T07:02:01.399Z,991.54
2017-10-23T07:03:08.724Z,991.65
2017-10-23T07:04:15.457Z,991.63
2017-10-23T07:05:22.797Z,991.65
2017-10-23T07:06:29.198Z,991.68
2017-10-23T07:07:36.210Z,991.65
2017-10-23T07:08:43.045Z,991.66
2017-10-23T07:09:50.043Z,991.62
2017-10-23T07:10:56.981Z,991.74
2017-10-23T07:12:03.953Z,991.68
2017-10-23T07:13:10.958Z,991.74
2017-10-23T07:14:17.937Z,991.79
2017-10-23T07:15:25.245Z,991.85
2017-10-23T07:16:31.829Z,991.79
2017-10-23T07:17:38.835Z,991.78
2017-10-23T07:18:46.034Z,991.79
2017-10-23T07:19:53.029Z,991.89
2017-10-23T07:21:00.031Z,991.87
2017-10-23T07:22:06.977Z,991.79
2017-10-23T07:23:13.968Z,991.82
2017-10-23T07:24:20.855Z,991.81
2017-10-23T07:25:27.870Z,991.82
2017-10-23T07:26:34.763Z,991.79
2017-10-23T07:27:41.734Z,991.84
2017-10-23T07:28:48.758Z,991.79
2017-10-23T07:29:55.667Z,991.88
2017-10-23T07:31:02.536Z,991.84
2017-10-23T07:32:09.546Z,991.83
2017-10-23T07:33:16.497Z,991.85
2017-10-23T07:34:23.418Z,991.91
2017-10-23T07:35:30.414Z,991.92
2017-10-23T07:36:37.275Z,991.85
2017-10-23T07:37:44.539Z,991.95
2017-10-23T07:38:50.957Z,991.94
2017-10-23T07:39:57.932Z,991.93
2017-10-23T07:41:04.858Z,991.95
2017-10-23T07:42:11.763Z,991.93
2017-10-23T07:43:18.799Z,991.97
2017-10-23T07:44:25.970Z,991.94
2017-10-23T07:45:32.918Z,991.89
2017-10-23T07:46:39.564Z,991.94
2017-10-23T07:47:46.456Z,991.94
2017-10-23T07:48:53.485Z,991.97
2017-10-23T07:50:00.102Z,991.97
2017-10-23T07:51:07.078Z,991.96
2017-10-23T07:52:14.176Z,991.99
2017-10-23T07:53:21.029Z,992.04
2017-10-23T07:54:31.422Z,992.06
2017-10-23T07:55:34.855Z,992.02
2017-10-23T07:56:41.895Z,992.01
2017-10-23T07:57:48.838Z,991.99
2017-10-23T07:58:55.857Z,992.01
2017-10-23T08:00:02.749Z,991.95
2017-10-23T08:01:09.698Z,991.93
2017-10-23T08:02:16.644Z,991.94
2017-10-23T08:03:23.629Z,991.90
2017-10-23T08:04:30.827Z,991.87
2017-10-23T08:05:38.345Z,991.89
2017-10-23T08:06:44.062Z,991.88
2017-10-23T08:07:50.999Z,991.99
2017-10-23T08:08:58.279Z,991.93
2017-10-23T08:10:04.718Z,992.00
2017-10-23T08:11:11.715Z,991.99
2017-10-23T08:12:18.571Z,991.96
2017-10-23T08:13:25.588Z,991.91
2017-10-23T08:14:32.595Z,991.89
2017-10-23T08:15:39.506Z,991.91
2017-10-23T08:16:46.457Z,991.97
2017-10-23T08:17:53.302Z,992.02
2017-10-23T08:19:00.202Z,991.93
2017-10-23T08:20:07.095Z,991.96
2017-10-23T08:21:14.025Z,992.03
2017-10-23T08:22:21.090Z,992.03
2017-10-23T08:23:28.176Z,992.11
2017-10-23T08:24:35.111Z,992.12
2017-10-23T08:25:42.428Z,992.01
2017-10-23T08:26:49.078Z,992.03
2017-10-23T08:27:55.983Z,992.02
2017-10-23T08:29:02.884Z,992.09
2017-10-23T08:30:09.779Z,992.07
2017-10-23T08:31:16.662Z,992.04
2017-10-23T08:32:24.695Z,992.10
2017-10-23T08:33:30.411Z,992.08
2017-10-23T08:34:37.277Z,992.14
2017-10-23T08:35:44.174Z,992.13
2017-10-23T08:36:51.011Z,992.13
2017-10-23T08:37:58.032Z,992.07
2017-10-23T08:40:11.720Z,992.06
2017-10-23T08:41:18.682Z,992.07
2017-10-23T08:42:25.571Z,992.14
2017-10-23T08:43:32.434Z,992.16
2017-10-23T08:44:39.338Z,992.21
2017-10-23T08:45:46.210Z,992.16
2017-10-23T08:46:53.111Z,992.17
2017-10-23T08:48:00.030Z,992.17
2017-10-23T08:49:07.009Z,992.15
2017-10-23T08:50:14.691Z,992.20
2017-10-23T08:51:20.903Z,992.21
2017-10-23T08:52:27.883Z,992.20
2017-10-23T08:53:34.982Z,992.18
2017-10-23T08:54:41.597Z,992.23
2017-10-23T08:55:48.547Z,992.25
2017-10-23T08:56:55.558Z,992.22
2017-10-23T08:58:02.519Z,992.30
2017-10-23T08:59:09.453Z,992.29
2017-10-23T09:00:16.426Z,992.29
2017-10-23T09:01:23.384Z,992.34
2017-10-23T09:02:30.574Z,992.35
2017-10-23T09:03:37.262Z,992.37
2017-10-23T09:04:44.262Z,992.30
2017-10-23T09:05:51.401Z,992.36
2017-10-23T09:06:58.501Z,992.29
2017-10-23T09:08:05.693Z,992.33
2017-10-23T09:09:12.418Z,992.35
2017-10-23T09:10:19.147Z,992.29
2017-10-23T09:11:26.103Z,992.36
2017-10-23T09:12:33.115Z,992.36
2017-10-23T09:13:39.998Z,992.36
2017-10-23T09:14:46.873Z,992.47
2017-10-23T09:15:53.690Z,992.36
2017-10-23T09:17:00.626Z,992.32
2017-10-23T09:18:07.742Z,992.36
2017-10-23T09:19:14.665Z,992.38
2017-10-23T09:20:21.802Z,992.48
2017-10-23T09:21:28.644Z,992.38
2017-10-23T09:22:35.770Z,992.39
2017-10-23T09:23:43.175Z,992.42
2017-10-23T09:24:49.306Z,992.32
2017-10-23T09:25:56.198Z,992.36
2017-10-23T09:27:06.711Z,992.35
2017-10-23T09:28:10.123Z,992.28
2017-10-23T09:29:17.075Z,992.36
2017-10-23T09:30:24.150Z,992.31
2017-10-23T09:31:31.089Z,992.33
2017-10-23T09:32:38.001Z,992.37
2017-10-23T09:33:44.948Z,992.39
2017-10-23T09:34:51.867Z,992.36
2017-10-23T09:35:58.752Z,992.41
2017-10-23T09:37:05.786Z,992.37
2017-10-23T09:38:12.701Z,992.44
2017-10-23T09:39:19.585Z,992.39
2017-10-23T09:40:26.438Z,992.41
2017-10-23T09:41:33.558Z,992.42
2017-10-23T09:42:40.016Z,992.42
2017-10-23T09:43:47.445Z,992.39
2017-10-23T09:44:53.954Z,992.37
2017-10-23T09:46:01.155Z,992.30
2017-10-23T09:47:08.154Z,992.42
2017-10-23T09:48:15.283Z,992.44
2017-10-23T09:49:22.282Z,992.41
2017-10-23T09:50:28.660Z,992.42
2017-10-23T09:51:35.575Z,992.43
2017-10-23T09:52:42.470Z,992.41
2017-10-23T09:53:49.339Z,992.46
2017-10-23T09:54:56.468Z,992.39
2017-10-23T09:56:03.381Z,992.42
2017-10-23T09:57:10.122Z,992.46
2017-10-23T09:58:17.090Z,992.48
2017-10-23T09:59:24.452Z,992.46
2017-10-23T10:00:30.838Z,992.41
2017-10-23T10:01:37.678Z,992.36
2017-10-23T10:02:50.145Z,992.47
2017-10-23T10:03:51.626Z,992.51
2017-10-23T10:04:58.564Z,992.38
2017-10-23T10:06:05.404Z,992.49
2017-10-23T10:07:12.243Z,992.37
2017-10-23T10:08:19.122Z,992.49
2017-10-23T10:09:26.042Z,992.51
2017-10-23T10:10:34.491Z,992.50
2017-10-23T10:11:39.757Z,992.47
2017-10-23T10:12:46.723Z,992.41
2017-10-23T10:13:53.626Z,992.47
2017-10-23T10:15:00.540Z,992.49
2017-10-23T10:16:07.426Z,992.43
2017-10-23T10:17:14.342Z,992.47
2017-10-23T10:18:21.375Z,992.48
2017-10-23T10:19:28.330Z,992.39
2017-10-23T10:20:35.274Z,992.49
2017-10-23T10:21:42.238Z,992.40
2017-10-23T10:22:49.146Z,992.40
2017-10-23T10:23:56.050Z,992.43
2017-10-23T10:25:03.150Z,992.38
2017-10-23T10:26:09.702Z,992.43
2017-10-23T10:27:16.506Z,992.43
2017-10-23T10:28:23.325Z,992.49
2017-10-23T10:29:30.214Z,992.49
2017-10-23T10:30:37.124Z,992.45
2017-10-23T10:31:44.006Z,992.42
2017-10-23T10:32:50.803Z,992.44
2017-10-23T10:33:57.690Z,992.43
2017-10-23T10:51:48.421Z,992.42
2017-10-23T10:52:55.246Z,992.43
2017-10-23T10:54:02.057Z,992.46
2017-10-23T10:55:09.056Z,992.50
2017-10-23T10:56:15.910Z,992.45
2017-10-23T10:57:22.687Z,992.43
2017-10-23T10:58:29.480Z,992.45
2017-10-23T10:59:36.550Z,992.45
2017-10-23T11:00:43.422Z,992.43
2017-10-23T11:01:50.450Z,992.43
2017-10-23T11:02:57.377Z,992.49
2017-10-23T11:04:04.213Z,992.48
2017-10-23T11:05:11.128Z,992.46
2017-10-23T11:06:17.958Z,992.55
2017-10-23T11:07:24.765Z,992.50
2017-10-23T11:08:31.559Z,992.49
2017-10-23T11:09:38.369Z,992.47
2017-10-23T11:10:45.145Z,992.54
2017-10-23T11:11:51.902Z,992.54
2017-10-23T11:12:58.686Z,992.49
2017-10-23T11:14:05.497Z,992.49
2017-10-23T11:15:12.272Z,992.54
2017-10-23T11:16:19.056Z,992.52
2017-10-23T11:17:25.898Z,992.57
2017-10-23T11:18:32.735Z,992.55
2017-10-23T11:19:39.596Z,992.57
2017-10-23T11:20:46.465Z,992.51
2017-10-23T11:21:53.262Z,992.54
2017-10-23T11:23:00.045Z,992.54
2017-10-23T11:24:06.824Z,992.54
2017-10-23T11:25:13.618Z,992.50
2017-10-23T11:26:20.393Z,992.52
2017-10-23T11:27:27.179Z,992.59
2017-10-23T11:28:33.982Z,992.53
2017-10-23T11:29:40.762Z,992.54
2017-10-23T11:30:47.538Z,992.45
2017-10-23T11:31:54.329Z,992.59
2017-10-23T11:33:01.112Z,992.55
2017-10-23T11:34:07.925Z,992.58
2017-10-23T11:35:14.708Z,992.54
2017-10-23T11:36:21.517Z,992.54
2017-10-23T11:36:59.162Z,992.49
2017-10-23T11:38:05.992Z,992.56
2017-10-23T11:39:12.785Z,992.60
2017-10-23T11:40:19.553Z,992.52
2017-10-23T11:41:26.320Z,992.50
2017-10-23T11:42:33.134Z,992.54
2017-10-23T11:43:39.894Z,992.46
2017-10-23T11:44:46.656Z,992.50
2017-10-23T11:45:53.512Z,992.52
2017-10-23T11:47:00.268Z,992.51
2017-10-23T11:48:07.141Z,992.50
2017-10-23T11:49:13.930Z,992.45
2017-10-23T11:50:20.737Z,992.56
2017-10-23T11:51:27.664Z,992.55
2017-10-23T11:52:34.473Z,992.55
2017-10-23T11:53:41.212Z,992.54
2017-10-23T11:54:47.976Z,992.43
2017-10-23T11:55:54.766Z,992.44
2017-10-23T11:57:01.526Z,992.47
2017-10-23T11:58:08.375Z,992.43
2017-10-23T11:59:15.113Z,992.46
2017-10-23T12:00:21.910Z,992.47
2017-10-23T12:01:28.738Z,992.47
2017-10-23T12:02:35.520Z,992.55
2017-10-23T12:03:42.267Z,992.62
2017-10-23T12:04:49.080Z,992.53
2017-10-23T12:05:55.922Z,992.53
2017-10-23T12:07:02.684Z,992.58
2017-10-23T12:08:09.466Z,992.51
2017-10-23T12:09:16.312Z,992.51
2017-10-23T12:10:23.060Z,992.57
2017-10-23T12:11:29.834Z,992.60
2017-10-23T12:12:36.600Z,992.56
2017-10-23T12:13:43.406Z,992.46
2017-10-23T12:14:50.231Z,992.51
2017-10-23T12:15:57.076Z,992.65
2017-10-23T12:17:04.373Z,992.60
2017-10-23T12:18:10.680Z,992.51
2017-10-23T12:19:17.496Z,992.48
2017-10-23T12:20:24.570Z,992.46
2017-10-23T12:21:31.510Z,992.45
2017-10-23T12:22:38.429Z,992.50
2017-10-23T12:23:45.348Z,992.49
2017-10-23T12:24:52.241Z,992.49
2017-10-23T12:25:59.086Z,992.49
2017-10-23T12:27:06.007Z,992.49
2017-10-23T12:28:12.946Z,992.52
2017-10-23T12:29:19.820Z,992.48
2017-10-23T12:30:26.629Z,992.50
2017-10-23T12:31:33.448Z,992.43
2017-10-23T12:32:40.252Z,992.47
2017-10-23T12:33:47.019Z,992.40
2017-10-23T12:34:53.828Z,992.42
2017-10-23T12:36:00.609Z,992.37
2017-10-23T12:37:07.411Z,992.46
2017-10-23T12:38:14.245Z,992.48
2017-10-23T12:39:21.168Z,992.46
2017-10-23T12:40:28.014Z,992.47
2017-10-23T12:41:34.945Z,992.46
2017-10-23T12:42:41.911Z,992.47
2017-10-23T12:43:48.850Z,992.46
2017-10-23T12:44:55.612Z,992.46
2017-10-23T12:46:02.433Z,992.53
2017-10-23T12:47:09.224Z,992.45
2017-10-23T12:48:15.964Z,992.33
2017-10-23T12:49:22.994Z,992.35
2017-10-23T12:50:29.793Z,992.39
2017-10-23T12:51:36.590Z,992.44
2017-10-23T12:52:43.401Z,992.39
2017-10-23T12:53:50.237Z,992.36
2017-10-23T12:54:57.015Z,992.34
2017-10-23T12:56:03.774Z,992.45
2017-10-23T12:57:10.544Z,992.46
2017-10-23T12:58:17.379Z,992.41
2017-10-23T12:59:24.257Z,992.45
2017-10-23T13:00:31.057Z,992.43
2017-10-23T13:01:37.789Z,992.47
2017-10-23T13:02:44.545Z,992.54
2017-10-23T13:03:51.372Z,992.52
2017-10-23T13:04:58.204Z,992.59
2017-10-23T13:06:04.964Z,992.56
2017-10-23T13:07:11.811Z,992.53
2017-10-23T13:08:18.568Z,992.56
2017-10-23T13:09:25.329Z,992.54
2017-10-23T13:10:32.242Z,992.56
2017-10-23T13:11:39.098Z,992.60
2017-10-23T13:12:46.005Z,992.63
2017-10-23T13:13:52.949Z,992.62
2017-10-23T13:14:59.772Z,992.58
2017-10-23T13:16:06.716Z,992.57
2017-10-23T13:17:13.563Z,992.56
2017-10-23T13:18:20.698Z,992.57
2017-10-23T13:19:27.492Z,992.54
2017-10-23T13:20:34.293Z,992.58
2017-10-23T13:21:41.252Z,992.59
2017-10-23T13:22:48.043Z,992.60
2017-10-23T13:23:54.849Z,992.51
2017-10-23T13:25:01.625Z,992.55
2017-10-23T13:26:08.475Z,992.55
2017-10-23T13:27:15.540Z,992.64
2017-10-23T13:28:22.368Z,992.60
2017-10-23T13:29:29.425Z,992.62
2017-10-23T13:30:36.141Z,992.61
2017-10-23T13:31:43.052Z,992.68
2017-10-23T13:32:49.861Z,992.64
2017-10-23T13:33:56.681Z,992.67
2017-10-23T13:35:03.485Z,992.64
2017-10-23T13:36:10.247Z,992.59
2017-10-23T13:37:17.055Z,992.57
2017-10-23T13:38:23.932Z,992.65
2017-10-23T13:39:30.809Z,992.57
2017-10-23T13:40:37.617Z,992.60
2017-10-23T13:41:44.385Z,992.61
2017-10-23T13:42:51.172Z,992.67
2017-10-23T13:43:58.114Z,992.63
2017-10-23T13:45:04.946Z,992.69
2017-10-23T13:46:11.769Z,992.68
2017-10-23T13:47:18.753Z,992.69
2017-10-23T13:48:25.745Z,992.72
2017-10-23T13:49:32.723Z,992.72
2017-10-23T13:50:39.553Z,992.66
2017-10-23T13:51:46.340Z,992.68
2017-10-23T13:52:53.230Z,992.67
2017-10-23T13:54:00.052Z,992.71
2017-10-23T13:55:06.850Z,992.64
2017-10-23T13:56:13.635Z,992.66
2017-10-23T13:57:20.480Z,992.65
2017-10-23T13:58:27.324Z,992.70
2017-10-23T13:59:34.207Z,992.76
2017-10-23T14:00:41.227Z,992.61
2017-10-23T14:01:48.179Z,992.68
2017-10-23T14:02:55.101Z,992.68
2017-10-23T14:04:01.962Z,992.67
2017-10-23T14:05:08.720Z,992.69
2017-10-23T14:06:15.556Z,992.73
2017-10-23T14:07:22.494Z,992.70
2017-10-23T14:08:29.416Z,992.69
2017-10-23T14:09:36.995Z,992.76
2017-10-23T14:10:42.992Z,992.75
2017-10-23T14:11:49.979Z,992.74